createdAt,value
2022-08-14T00:02:01.463Z,41.25
2022-08-14T00:04:35.543Z,40.93
2022-08-14T00:07:11.422Z,41.29
2022-08-14T00:10:01.963Z,41.42
2022-08-14T00:12:34.051Z,41.22
2022-08-14T00:15:15.019Z,41.20
2022-08-14T00:17:47.498Z,41.19
2022-08-14T00:20:23.839Z,41.41
2022-08-14T00:22:57.792Z,41.36
2022-08-14T00:25:41.725Z,41.52
2022-08-14T00:28:15.218Z,41.17
2022-08-14T00:30:46.793Z,41.76
2022-08-14T00:33:16.507Z,41.56
2022-08-14T00:36:36.194Z,41.65
2022-08-14T00:38:35.561Z,41.49
2022-08-14T00:41:06.072Z,41.72
2022-08-14T00:43:34.200Z,41.79
2022-08-14T00:46:08.168Z,41.61
2022-08-14T00:48:38.434Z,41.81
2022-08-14T00:51:10.376Z,41.80
2022-08-14T00:53:42.957Z,41.66
2022-08-14T00:56:15.405Z,41.81
2022-08-14T00:58:45.339Z,41.65
2022-08-14T01:01:18.796Z,42.03
2022-08-14T01:03:52.639Z,42.03
2022-08-14T01:06:22.421Z,41.88
2022-08-14T01:08:59.352Z,42.15
2022-08-14T01:11:31.690Z,42.03
2022-08-14T01:14:25.308Z,42.09
2022-08-14T01:16:55.441Z,42.21
2022-08-14T01:19:42.102Z,41.91
2022-08-14T01:22:13.470Z,41.85
2022-08-14T01:24:47.381Z,42.09
2022-08-14T01:27:18.215Z,42.20
2022-08-14T01:29:58.640Z,41.99
2022-08-14T01:32:29.995Z,42.36
2022-08-14T01:35:20.191Z,42.32
2022-08-14T01:37:56.101Z,42.09
2022-08-14T01:40:36.802Z,42.39
2022-08-14T01:43:15.891Z,42.30
2022-08-14T01:46:06.027Z,42.08
2022-08-14T01:48:37.289Z,42.18
2022-08-14T01:51:19.037Z,42.11
2022-08-14T01:53:55.515Z,42.14
2022-08-14T01:56:37.261Z,42.15
2022-08-14T01:59:10.202Z,42.48
2022-08-14T02:01:57.926Z,42.28
2022-08-14T02:04:56.207Z,42.51
2022-08-14T02:07:34.147Z,42.52
2022-08-14T02:10:12.847Z,42.25
2022-08-14T02:12:43.853Z,42.52
2022-08-14T02:15:12.688Z,42.24
2022-08-14T02:17:43.745Z,42.47
2022-08-14T02:20:14.024Z,42.50
2022-08-14T02:22:47.629Z,42.72
2022-08-14T02:25:17.724Z,42.27
2022-08-14T02:28:22.109Z,42.22
2022-08-14T02:30:34.864Z,42.09
2022-08-14T02:33:07.534Z,42.50
2022-08-14T02:35:40.704Z,42.21
2022-08-14T02:38:11.504Z,42.44
2022-08-14T02:40:41.389Z,42.45
2022-08-14T02:43:13.833Z,42.46
2022-08-14T02:45:44.751Z,42.21
2022-08-14T02:49:01.842Z,42.46
2022-08-14T02:51:09.006Z,42.22
2022-08-14T02:53:39.768Z,42.67
2022-08-14T02:56:30.563Z,42.43
2022-08-14T02:59:05.654Z,42.44
2022-08-14T03:01:43.583Z,42.57
2022-08-14T03:04:20.530Z,42.30
2022-08-14T03:07:06.338Z,42.66
2022-08-14T03:10:24.459Z,42.79
2022-08-14T03:12:31.741Z,42.50
2022-08-14T03:15:03.194Z,42.46
2022-08-14T03:17:56.262Z,42.70
2022-08-14T03:20:22.437Z,42.55
2022-08-14T03:22:51.555Z,42.78
2022-08-14T03:25:21.816Z,42.38
2022-08-14T03:27:58.572Z,42.59
2022-08-14T03:30:38.819Z,42.65
2022-08-14T03:33:10.649Z,42.59
2022-08-14T03:36:00.236Z,42.70
2022-08-14T03:39:13.172Z,42.80
2022-08-14T03:41:23.306Z,42.71
2022-08-14T03:43:57.531Z,42.92
2022-08-14T03:46:52.692Z,42.59
2022-08-14T03:49:29.218Z,42.92
2022-08-14T03:52:00.893Z,42.64
2022-08-14T03:54:29.900Z,43.16
2022-08-14T03:57:02.333Z,43.06
2022-08-14T03:59:32.693Z,43.08
2022-08-14T04:02:02.128Z,42.96
2022-08-14T04:04:30.848Z,42.94
2022-08-14T04:07:00.485Z,43.24
2022-08-14T04:09:29.318Z,43.30
2022-08-14T04:11:58.082Z,43.18
2022-08-14T04:14:29.056Z,42.91
2022-08-14T04:16:58.937Z,43.11
2022-08-14T04:19:28.321Z,43.08
2022-08-14T04:22:03.700Z,43.32
2022-08-14T04:24:39.108Z,43.16
2022-08-14T04:27:09.971Z,43.25
2022-08-14T04:29:39.356Z,42.88
2022-08-14T04:32:58.331Z,42.83
2022-08-14T04:34:58.932Z,43.11
2022-08-14T04:37:45.545Z,43.12
2022-08-14T04:40:32.441Z,43.29
2022-08-14T04:43:20.927Z,43.39
2022-08-14T04:45:50.982Z,43.61
2022-08-14T04:48:43.312Z,43.12
2022-08-14T04:51:10.960Z,43.67
2022-08-14T04:53:43.968Z,43.60
2022-08-14T04:56:30.696Z,43.53
2022-08-14T04:59:10.349Z,43.41
2022-08-14T05:01:49.145Z,43.57
2022-08-14T05:04:21.803Z,43.50
2022-08-14T05:06:54.483Z,43.61
2022-08-14T05:09:24.127Z,43.64
2022-08-14T05:11:53.059Z,43.48
2022-08-14T05:14:45.561Z,43.71
2022-08-14T05:17:11.372Z,43.47
2022-08-14T05:19:44.890Z,43.52
2022-08-14T05:22:30.084Z,43.42
2022-08-14T05:24:58.401Z,43.55
2022-08-14T05:27:26.462Z,43.63
2022-08-14T05:29:59.160Z,43.65
2022-08-14T05:32:28.277Z,43.80
2022-08-14T05:34:59.690Z,44.07
2022-08-14T05:37:29.873Z,43.83
2022-08-14T05:39:59.554Z,44.01
2022-08-14T05:42:32.076Z,44.03
2022-08-14T05:45:04.337Z,44.21
2022-08-14T05:47:34.016Z,44.10
2022-08-14T05:50:18.608Z,44.14
2022-08-14T05:52:50.509Z,44.26
2022-08-14T05:55:22.605Z,44.30
2022-08-14T05:57:53.794Z,44.31
2022-08-14T06:00:28.335Z,44.30
2022-08-14T06:02:57.410Z,44.65
2022-08-14T06:05:29.044Z,44.25
2022-08-14T06:07:57.871Z,44.30
2022-08-14T06:10:28.134Z,44.13
2022-08-14T06:12:58.146Z,43.99
2022-08-14T06:15:29.936Z,43.65
2022-08-14T06:18:00.217Z,43.67
2022-08-14T06:20:30.838Z,43.50
2022-08-14T06:22:59.441Z,43.73
2022-08-14T06:25:28.618Z,43.71
2022-08-14T06:27:58.027Z,43.61
2022-08-14T06:30:46.337Z,43.59
2022-08-14T06:33:16.369Z,43.50
2022-08-14T06:35:49.879Z,43.56
2022-08-14T06:38:21.500Z,43.53
2022-08-14T06:40:53.276Z,43.50
2022-08-14T06:43:27.114Z,43.58
2022-08-14T06:45:57.134Z,43.40
2022-08-14T06:48:26.233Z,43.18
2022-08-14T06:50:57.844Z,42.99
2022-08-14T06:53:28.048Z,42.89
2022-08-14T06:56:00.871Z,42.97
2022-08-14T06:58:32.224Z,42.86
2022-08-14T07:01:25.151Z,42.65
2022-08-14T07:04:22.690Z,42.40
2022-08-14T07:06:59.252Z,42.18
2022-08-14T07:09:43.786Z,42.15
2022-08-14T07:12:54.122Z,41.94
2022-08-14T07:15:07.782Z,41.92
2022-08-14T07:17:36.452Z,41.52
2022-08-14T07:20:07.153Z,41.58
2022-08-14T07:22:50.009Z,41.59
2022-08-14T07:25:32.387Z,41.68
2022-08-14T07:28:01.255Z,41.36
2022-08-14T07:30:33.835Z,41.37
2022-08-14T07:33:03.638Z,41.25
2022-08-14T07:35:42.986Z,41.16
2022-08-14T07:38:22.626Z,40.98
2022-08-14T07:40:52.933Z,41.09
2022-08-14T07:43:21.875Z,40.68
2022-08-14T07:45:51.069Z,40.61
2022-08-14T07:48:25.059Z,40.69
2022-08-14T07:51:02.051Z,40.49
2022-08-14T07:53:34.188Z,40.26
2022-08-14T07:56:21.942Z,40.47
2022-08-14T07:58:58.503Z,40.11
2022-08-14T08:01:29.913Z,39.99
2022-08-14T08:04:01.227Z,39.99
2022-08-14T08:06:30.129Z,40.08
2022-08-14T08:09:03.231Z,40.00
2022-08-14T08:11:37.199Z,40.07
2022-08-14T08:14:10.810Z,40.00
2022-08-14T08:16:47.487Z,39.81
2022-08-14T08:19:19.743Z,39.67
2022-08-14T08:21:48.080Z,39.68
2022-08-14T08:24:19.693Z,39.49
2022-08-14T08:26:50.774Z,39.47
2022-08-14T08:29:28.955Z,39.46
2022-08-14T08:32:01.638Z,39.23
2022-08-14T08:34:44.880Z,39.37
2022-08-14T08:37:12.982Z,39.39
2022-08-14T08:40:03.039Z,39.51
2022-08-14T08:42:38.778Z,39.56
2022-08-14T08:45:17.467Z,39.45
2022-08-14T08:47:46.576Z,39.37
2022-08-14T08:50:31.736Z,39.48
2022-08-14T08:53:02.065Z,39.43
2022-08-14T08:55:34.242Z,39.30
2022-08-14T08:58:05.589Z,39.17
2022-08-14T09:00:49.976Z,39.05
2022-08-14T09:03:25.578Z,39.06
2022-08-14T09:05:57.935Z,38.99
2022-08-14T09:08:31.328Z,38.82
2022-08-14T09:11:19.379Z,38.70
2022-08-14T09:13:51.033Z,38.77
2022-08-14T09:16:23.581Z,38.50
2022-08-14T09:18:53.872Z,38.33
2022-08-14T09:21:24.326Z,38.50
2022-08-14T09:24:28.647Z,38.24
2022-08-14T09:26:49.491Z,38.03
2022-08-14T09:29:20.016Z,38.14
2022-08-14T09:31:57.381Z,37.69
2022-08-14T09:34:57.730Z,37.58
2022-08-14T09:37:38.616Z,37.81
2022-08-14T09:40:21.304Z,37.68
2022-08-14T09:42:58.613Z,37.74
2022-08-14T09:45:40.179Z,37.57
2022-08-14T09:48:29.896Z,37.68
2022-08-14T09:54:18.644Z,37.12
2022-08-14T09:56:31.402Z,36.81
2022-08-14T09:59:15.324Z,36.79
2022-08-14T10:01:46.336Z,36.70
2022-08-14T10:04:36.523Z,36.87
2022-08-14T10:07:10.062Z,36.41
2022-08-14T10:09:57.668Z,36.37
2022-08-14T10:12:48.532Z,36.72
2022-08-14T10:15:25.179Z,35.88
2022-08-14T10:18:08.123Z,36.28
2022-08-14T10:20:41.876Z,36.87
2022-08-14T10:23:16.095Z,37.16
2022-08-14T10:25:47.449Z,37.42
2022-08-14T10:28:39.278Z,37.73
2022-08-14T10:31:18.052Z,38.06
2022-08-14T10:34:00.408Z,38.22
2022-08-14T10:36:36.948Z,38.72
2022-08-14T10:39:10.112Z,39.05
2022-08-14T10:41:48.552Z,39.44
2022-08-14T10:44:29.778Z,39.76
2022-08-14T10:47:39.513Z,40.40
2022-08-14T10:50:01.260Z,40.74
2022-08-14T10:52:34.533Z,40.71
2022-08-14T10:55:13.922Z,41.17
2022-08-14T10:57:52.779Z,41.24
2022-08-14T11:00:30.132Z,41.34
2022-08-14T11:03:09.818Z,41.46
2022-08-14T11:05:42.809Z,41.34
2022-08-14T11:08:13.052Z,41.36
2022-08-14T11:10:45.226Z,40.89
2022-08-14T11:13:18.746Z,41.17
2022-08-14T11:15:48.912Z,41.14
2022-08-14T11:18:20.612Z,40.98
2022-08-14T11:21:02.306Z,40.84
2022-08-14T11:23:38.525Z,40.80
2022-08-14T11:26:10.309Z,40.47
2022-08-14T11:28:48.063Z,40.24
2022-08-14T11:31:20.386Z,40.10
2022-08-14T11:33:57.607Z,40.07
2022-08-14T11:37:01.986Z,40.03
2022-08-14T11:39:33.820Z,39.81
2022-08-14T11:42:55.201Z,39.69
2022-08-14T11:45:00.177Z,39.67
2022-08-14T11:47:35.266Z,39.45
2022-08-14T11:50:34.033Z,39.36
2022-08-14T11:53:07.654Z,39.45
2022-08-14T11:55:38.096Z,39.44
2022-08-14T11:58:10.581Z,39.09
2022-08-14T12:00:48.396Z,38.89
2022-08-14T12:03:27.122Z,38.65
2022-08-14T12:06:27.883Z,38.63
2022-08-14T12:09:00.090Z,38.75
2022-08-14T12:11:43.593Z,38.42
2022-08-14T12:14:30.733Z,38.35
2022-08-14T12:17:04.186Z,38.33
2022-08-14T12:19:33.625Z,38.10
2022-08-14T12:22:06.814Z,38.05
2022-08-14T12:24:36.509Z,37.85
2022-08-14T12:27:05.208Z,37.91
2022-08-14T12:29:35.201Z,37.60
2022-08-14T12:32:08.884Z,37.61
2022-08-14T12:34:37.530Z,37.48
2022-08-14T12:37:09.603Z,37.43
2022-08-14T12:39:40.825Z,37.43
2022-08-14T12:42:11.915Z,37.07
2022-08-14T12:44:58.769Z,37.16
2022-08-14T12:47:31.293Z,37.04
2022-08-14T12:49:59.684Z,36.97
2022-08-14T12:52:41.654Z,37.00
2022-08-14T12:55:22.143Z,37.13
2022-08-14T12:57:53.790Z,37.13
2022-08-14T13:00:24.462Z,37.08
2022-08-14T13:02:56.547Z,37.04
2022-08-14T13:05:29.102Z,36.90
2022-08-14T13:07:59.484Z,36.79
2022-08-14T13:10:46.526Z,36.75
2022-08-14T13:13:18.916Z,36.78
2022-08-14T13:15:56.256Z,36.57
2022-08-14T13:18:27.831Z,36.39
2022-08-14T13:20:59.759Z,36.34
2022-08-14T13:23:34.437Z,36.21
2022-08-14T13:26:05.339Z,36.23
2022-08-14T13:28:39.781Z,36.10
2022-08-14T13:31:11.758Z,36.12
2022-08-14T13:33:41.021Z,35.93
2022-08-14T13:36:11.013Z,35.90
2022-08-14T13:38:54.518Z,35.96
2022-08-14T13:41:31.780Z,35.41
2022-08-14T13:44:05.052Z,35.52
2022-08-14T13:46:36.101Z,36.01
2022-08-14T13:49:10.615Z,35.67
2022-08-14T13:51:40.618Z,35.97
2022-08-14T13:54:11.701Z,35.82
2022-08-14T13:56:42.564Z,35.81
2022-08-14T13:59:11.985Z,35.93
2022-08-14T14:01:51.709Z,35.93
2022-08-14T14:04:20.377Z,35.60
2022-08-14T14:06:52.318Z,35.86
2022-08-14T14:09:32.583Z,35.81
2022-08-14T14:12:37.510Z,35.95
2022-08-14T14:15:05.446Z,35.81
2022-08-14T14:17:33.898Z,35.86
2022-08-14T14:20:03.102Z,35.98
2022-08-14T14:23:01.282Z,35.95
2022-08-14T14:25:22.590Z,35.84
2022-08-14T14:27:53.235Z,35.99
2022-08-14T14:30:46.237Z,36.06
2022-08-14T14:33:42.369Z,36.04
2022-08-14T14:36:05.017Z,35.93
2022-08-14T14:38:34.833Z,35.88
2022-08-14T14:41:05.661Z,36.01
2022-08-14T14:43:38.997Z,36.10
2022-08-14T14:46:10.152Z,35.87
2022-08-14T14:48:46.502Z,36.19
2022-08-14T14:51:17.210Z,35.88
2022-08-14T14:53:48.667Z,36.15
2022-08-14T14:56:47.246Z,35.99
2022-08-14T14:59:07.065Z,36.28
2022-08-14T15:01:36.994Z,35.89
2022-08-14T15:04:19.878Z,36.14
2022-08-14T15:06:49.970Z,36.35
2022-08-14T15:09:18.436Z,36.38
2022-08-14T15:11:49.937Z,36.38
2022-08-14T15:14:55.949Z,36.36
2022-08-14T15:17:06.531Z,36.24
2022-08-14T15:19:34.886Z,36.38
2022-08-14T15:22:03.678Z,36.33
2022-08-14T15:24:31.745Z,36.50
2022-08-14T15:27:06.738Z,36.44
2022-08-14T15:29:43.130Z,36.60
2022-08-14T15:32:11.533Z,36.56
2022-08-14T15:34:44.431Z,36.72
2022-08-14T15:37:17.000Z,36.66
2022-08-14T15:39:45.411Z,36.47
2022-08-14T15:42:16.632Z,36.73
2022-08-14T15:44:56.897Z,37.01
2022-08-14T15:47:28.500Z,36.80
2022-08-14T15:49:59.417Z,37.18
2022-08-14T15:52:32.852Z,36.85
2022-08-14T15:55:06.169Z,37.03
2022-08-14T15:57:36.281Z,36.97
2022-08-14T16:00:40.336Z,37.05
2022-08-14T16:03:15.694Z,37.53
2022-08-14T16:05:45.749Z,37.49
2022-08-14T16:08:29.095Z,37.35
2022-08-14T16:10:59.616Z,37.62
2022-08-14T16:13:42.066Z,37.69
2022-08-14T16:16:34.990Z,37.60
2022-08-14T16:19:07.353Z,37.56
2022-08-14T16:22:01.375Z,37.71
2022-08-14T16:24:35.963Z,37.63
2022-08-14T16:27:38.903Z,37.43
2022-08-14T16:33:05.269Z,37.20
2022-08-14T16:35:42.467Z,37.13
2022-08-14T16:38:46.370Z,36.86
2022-08-14T16:41:21.945Z,36.86
2022-08-14T16:43:53.651Z,36.60
2022-08-14T16:46:32.521Z,36.59
2022-08-14T16:49:01.493Z,36.30
2022-08-14T16:51:31.002Z,36.18
2022-08-14T16:54:21.040Z,36.27
2022-08-14T16:56:53.681Z,36.18
2022-08-14T16:59:30.443Z,36.17
2022-08-14T17:02:14.822Z,36.24
2022-08-14T17:04:49.132Z,36.21
2022-08-14T17:07:17.581Z,36.28
2022-08-14T17:09:48.610Z,36.09
2022-08-14T17:12:28.559Z,36.38
2022-08-14T17:15:01.751Z,36.04
2022-08-14T17:17:57.429Z,36.26
2022-08-14T17:20:54.556Z,36.07
2022-08-14T17:23:15.187Z,35.74
2022-08-14T17:25:49.428Z,36.14
2022-08-14T17:28:50.349Z,36.23
2022-08-14T17:31:09.938Z,36.78
2022-08-14T17:33:44.647Z,36.76
2022-08-14T17:36:24.459Z,37.04
2022-08-14T17:39:02.623Z,36.86
2022-08-14T17:41:43.621Z,37.18
2022-08-14T17:44:33.927Z,37.34
2022-08-14T17:47:10.616Z,36.86
2022-08-14T17:49:51.678Z,36.19
2022-08-14T17:52:36.249Z,36.08
2022-08-14T17:56:00.935Z,35.63
2022-08-14T17:57:59.864Z,35.47
2022-08-14T18:00:28.474Z,34.98
2022-08-14T18:03:00.163Z,34.66
2022-08-14T18:06:08.968Z,34.64
2022-08-14T18:08:33.825Z,34.39
2022-08-14T18:11:15.297Z,34.24
2022-08-14T18:13:51.572Z,34.41
2022-08-14T18:16:22.714Z,34.34
2022-08-14T18:18:52.017Z,34.22
2022-08-14T18:21:39.689Z,34.15
2022-08-14T18:24:28.050Z,34.08
2022-08-14T18:27:08.726Z,34.56
2022-08-14T18:29:54.619Z,34.71
2022-08-14T18:32:47.491Z,34.97
2022-08-14T18:35:45.812Z,35.05
2022-08-14T18:38:25.618Z,35.03
2022-08-14T18:40:56.082Z,35.30
2022-08-14T18:43:45.151Z,35.61
2022-08-14T18:46:59.944Z,36.09
2022-08-14T18:49:16.170Z,36.15
2022-08-14T18:51:45.220Z,36.54
2022-08-14T18:54:32.947Z,36.45
2022-08-14T18:57:02.516Z,36.73
2022-08-14T18:59:36.200Z,37.28
2022-08-14T19:02:42.753Z,37.17
2022-08-14T19:05:11.692Z,37.08
2022-08-14T19:07:40.983Z,37.39
2022-08-14T19:10:16.850Z,37.47
2022-08-14T19:13:12.223Z,37.67
2022-08-14T19:15:43.916Z,37.90
2022-08-14T19:18:28.140Z,37.80
2022-08-14T19:21:00.922Z,38.00
2022-08-14T19:23:42.115Z,38.09
2022-08-14T19:26:34.028Z,38.07
2022-08-14T19:29:36.271Z,38.20
2022-08-14T19:32:40.716Z,38.29
2022-08-14T19:35:55.006Z,38.58
2022-08-14T19:38:52.449Z,38.72
2022-08-14T19:41:29.593Z,38.95
2022-08-14T19:44:10.254Z,39.08
2022-08-14T19:46:59.986Z,39.35
2022-08-14T19:50:08.463Z,39.63
2022-08-14T19:52:23.484Z,39.73
2022-08-14T19:54:53.637Z,39.69
2022-08-14T19:57:24.788Z,39.75
2022-08-14T20:00:04.719Z,39.98
2022-08-14T20:02:41.656Z,39.87
2022-08-14T20:05:12.437Z,40.06
2022-08-14T20:07:59.962Z,40.07
2022-08-14T20:11:04.629Z,40.53
2022-08-14T20:13:32.648Z,40.58
2022-08-14T20:16:12.336Z,40.40
2022-08-14T20:18:51.982Z,40.71
2022-08-14T20:21:21.480Z,40.85
2022-08-14T20:23:50.316Z,40.57
2022-08-14T20:26:30.601Z,40.76
2022-08-14T20:29:05.355Z,40.83
2022-08-14T20:31:38.489Z,40.95
2022-08-14T20:34:19.099Z,40.97
2022-08-14T20:37:02.918Z,40.89
2022-08-14T20:39:34.517Z,41.14
2022-08-14T20:42:25.503Z,41.37
2022-08-14T20:45:17.360Z,41.32
2022-08-14T20:47:50.692Z,41.63
2022-08-14T20:50:28.793Z,41.84
2022-08-14T20:52:57.988Z,41.84
2022-08-14T20:55:29.315Z,42.28
2022-08-14T20:57:59.155Z,42.32
2022-08-14T21:00:52.134Z,42.26
2022-08-14T21:03:56.716Z,42.46
2022-08-14T21:06:31.029Z,42.27
2022-08-14T21:10:03.110Z,42.58
2022-08-14T21:12:34.414Z,42.50
2022-08-14T21:14:58.577Z,42.71
2022-08-14T21:17:26.639Z,42.60
2022-08-14T21:19:56.021Z,42.87
2022-08-14T21:22:25.542Z,42.75
2022-08-14T21:25:01.539Z,42.75
2022-08-14T21:27:37.259Z,42.73
2022-08-14T21:30:08.464Z,42.68
2022-08-14T21:32:47.070Z,42.72
2022-08-14T21:35:22.872Z,42.60
2022-08-14T21:37:52.214Z,42.55
2022-08-14T21:40:40.834Z,42.33
2022-08-14T21:43:17.370Z,42.39
2022-08-14T21:45:53.372Z,42.51
2022-08-14T21:48:25.467Z,42.64
2022-08-14T21:51:01.026Z,42.75
2022-08-14T21:53:36.741Z,42.76
2022-08-14T21:56:38.974Z,42.84
2022-08-14T21:59:11.085Z,42.89
2022-08-14T22:02:00.171Z,42.99
2022-08-14T22:04:39.885Z,42.90
2022-08-14T22:07:16.966Z,43.18
2022-08-14T22:09:54.619Z,43.05
2022-08-14T22:12:58.463Z,42.92
2022-08-14T22:15:14.863Z,43.18
2022-08-14T22:17:44.750Z,43.23
2022-08-14T22:20:21.599Z,43.25
2022-08-14T22:22:56.160Z,43.46
2022-08-14T22:25:31.956Z,43.54
2022-08-14T22:28:04.311Z,43.23
2022-08-14T22:30:32.705Z,43.24
2022-08-14T22:33:04.691Z,43.09
2022-08-14T22:35:33.998Z,43.29
2022-08-14T22:38:35.382Z,43.29
2022-08-14T22:41:09.081Z,43.06
2022-08-14T22:43:41.714Z,43.38
2022-08-14T22:46:14.994Z,43.26
2022-08-14T22:48:45.159Z,43.39
2022-08-14T22:51:14.974Z,43.31
2022-08-14T22:53:45.294Z,43.40
2022-08-14T22:56:20.488Z,43.59
2022-08-14T22:58:53.961Z,43.50
2022-08-14T23:01:56.046Z,43.53
2022-08-14T23:04:34.740Z,43.67
2022-08-14T23:07:07.305Z,43.70
2022-08-14T23:09:39.938Z,43.67
2022-08-14T23:12:27.926Z,43.60
2022-08-14T23:14:59.254Z,43.56
2022-08-14T23:17:38.770Z,43.92
2022-08-14T23:20:18.971Z,44.13
2022-08-14T23:22:51.378Z,44.18
2022-08-14T23:25:45.821Z,43.83
2022-08-14T23:28:32.692Z,43.98
2022-08-14T23:31:05.600Z,43.83
2022-08-14T23:33:35.294Z,43.94
2022-08-14T23:36:32.756Z,43.86
2022-08-14T23:38:56.042Z,43.85
2022-08-14T23:41:27.289Z,43.96
2022-08-14T23:44:16.172Z,43.94
2022-08-14T23:46:52.780Z,44.22
2022-08-14T23:49:25.327Z,44.10
2022-08-14T23:52:49.286Z,44.41
2022-08-14T23:54:48.518Z,44.57
2022-08-14T23:57:19.595Z,44.62
2022-08-14T23:59:54.743Z,44.47
